»·PEaware :: RNGR824 KNGP-KNGP

RNGR824 :: KNGP-KNGP

FLIGHT INFORMATION

Flight Status: Arrived
Operator: Unknown
More flights by this operator :: More flights under this callsign
Pilot: USN Avenger (31125)
Aircraft: BEECH AIRCRAFT T-6A TEXAN
(TEX2)
More flights by this aircraft type
Origin: KNGP Corpus Christi NAS/Truax
United States
Destination: KNGP Corpus Christi NAS/Truax
United States
More flights between these airports :: More routes between these airports
Route: 36 > BEACHLINE TO NORTH MUSTANG >PEL ENTRY TO KRKP > COURSE RULES TO
File this flight plan on PilotEdge
Remarks:
Altitude:
(Current/Filed)
5,500ft
Speed:
(Current/Filed)
200kts
Departed: 27-Nov-23 09:22 AM
Arrived: 27-Nov-23 10:13 AM
Distance/Time
Traveled:
0nm/0:51
Distance/Time
To Go:
Arrived

Flight Plot

Page will automatically refresh every two minutes.

Flight plan parsing failed; only flown route is shown


Map Options




Map Legend


Flown Route
Filed Route
Departure Airport
Arrival Airport
Navaid (VOR, NDB)
Fix

Horizontal Profiles

Position Reports

Time Latitude Longitude Heading Altitude Ground
Speed
27-Nov-23 09:12 27.698542 -97.284284 158 22ft 0kts
27-Nov-23 09:13 27.698541 -97.284284 158 22ft 0kts
27-Nov-23 09:14 27.698540 -97.284283 158 22ft 0kts
27-Nov-23 09:15 27.686836 -97.280205 159 22ft 0kts
27-Nov-23 09:16 27.686834 -97.280205 159 22ft 0kts
27-Nov-23 09:17 27.686833 -97.280204 159 22ft 0kts
27-Nov-23 09:18 27.686831 -97.280203 159 22ft 0kts
27-Nov-23 09:19 27.686582 -97.280151 197 22ft 5kts
27-Nov-23 09:20 27.686151 -97.280470 226 22ft 5kts
27-Nov-23 09:21 27.686761 -97.282128 314 22ft 54kts
27-Nov-23 09:22 27.717624 -97.310706 351 1173ft 182kts
27-Nov-23 09:23 27.730396 -97.263028 108 2543ft 229kts
27-Nov-23 09:24 27.705128 -97.191506 113 2555ft 247kts
27-Nov-23 09:25 27.703265 -97.125930 36 3492ft 217kts
27-Nov-23 09:26 27.752431 -97.088469 32 5625ft 218kts
27-Nov-23 09:27 27.810592 -97.045264 34 5587ft 260kts
27-Nov-23 09:28 27.867763 -97.000546 33 6736ft 226kts
27-Nov-23 09:29 27.921447 -96.964091 5 8173ft 247kts
27-Nov-23 09:30 27.938258 -96.979405 109 7957ft 245kts
27-Nov-23 09:31 27.924260 -96.927043 91 9635ft 125kts
27-Nov-23 09:32 27.903749 -96.928363 241 10044ft 211kts
27-Nov-23 09:33 27.883189 -96.970520 247 9871ft 145kts
27-Nov-23 09:34 27.903566 -96.985452 25 8399ft 144kts
27-Nov-23 09:35 27.911440 -96.958132 123 8406ft 134kts
27-Nov-23 09:36 27.889451 -96.937517 237 8412ft 167kts
27-Nov-23 09:37 27.889160 -96.995998 341 8874ft 234kts
27-Nov-23 09:38 27.939311 -96.958673 19 7746ft 221kts
27-Nov-23 09:39 27.997696 -96.964155 346 6263ft 219kts
27-Nov-23 09:40 28.055095 -96.982526 348 5665ft 193kts
27-Nov-23 09:41 28.077245 -97.016859 189 3291ft 198kts
27-Nov-23 09:42 28.028556 -97.003024 198 1677ft 182kts
27-Nov-23 09:43 28.013801 -97.050315 292 1002ft 180kts
27-Nov-23 09:44 28.059094 -97.073519 11 1039ft 205kts
27-Nov-23 09:45 28.071228 -97.021534 141 986ft 223kts
27-Nov-23 09:46 28.046319 -97.044220 305 977ft 207kts
27-Nov-23 09:47 28.098195 -97.045354 281 991ft 163kts
27-Nov-23 09:48 28.075774 -97.042660 29 203ft 113kts
27-Nov-23 09:49 28.102519 -97.045389 259 505ft 131kts
27-Nov-23 09:50 28.072504 -97.052649 122 572ft 110kts
27-Nov-23 09:51 28.095457 -97.040131 319 444ft 120kts
27-Nov-23 09:52 28.072672 -97.050892 117 417ft 119kts
27-Nov-23 09:53 28.098196 -97.038156 5 378ft 132kts
27-Nov-23 09:54 28.140338 -97.026524 60 2638ft 183kts
27-Nov-23 09:55 28.103386 -97.004534 190 4196ft 210kts
27-Nov-23 09:56 28.062996 -97.029798 290 4954ft 133kts
27-Nov-23 09:57 28.094528 -97.038525 304 2842ft 122kts
27-Nov-23 09:58 28.074503 -97.050418 112 1007ft 123kts
27-Nov-23 09:59 28.098276 -97.037451 8 383ft 118kts
27-Nov-23 10:00 28.126473 -97.012851 129 1733ft 196kts
27-Nov-23 10:01 28.063965 -97.012094 193 1499ft 242kts
27-Nov-23 10:02 28.004173 -97.043640 219 1477ft 243kts
27-Nov-23 10:03 27.945866 -97.079097 203 1043ft 240kts
27-Nov-23 10:04 27.887664 -97.116802 220 1051ft 242kts
27-Nov-23 10:05 27.833590 -97.161294 195 1027ft 243kts
27-Nov-23 10:06 27.766187 -97.166383 191 1007ft 236kts
27-Nov-23 10:07 27.715113 -97.196731 204 1028ft 205kts
27-Nov-23 10:08 27.663135 -97.223740 228 1041ft 207kts
27-Nov-23 10:09 27.684382 -97.276665 315 1039ft 207kts
27-Nov-23 10:10 27.699586 -97.276848 137 861ft 123kts
27-Nov-23 10:11 27.685299 -97.280453 312 66ft 104kts
27-Nov-23 10:12 27.693875 -97.290200 314 22ft 15kts
27-Nov-23 10:13 27.695447 -97.290667 48 22ft 0kts

Navigation Log

Ident Type
Flight plan parsing failed, navigation log unavailable